Terminal Aerodrome Forecast
Issued by NWS

Home | Current Version | Previous Version | Graphics & Text | Print | Product List | Glossary Off
Versions: 1 2 3 4 5 6 7 8 9 10 11 12 13 14 15 16 17 18

520
FTUS43 KMPX 261729
TAFAXN
TAF
KAXN 261729Z 2618/2718 36014KT P6SM -SN SCT008 OVC012
      TEMPO 2618/2622 5SM -SN
     FM270600 35009KT 5SM -SN BR BKN008 OVC012
     FM271400 32013G21KT P6SM SCT008 BKN015=

USA.gov is the U.S. government's official web portal to all federal, state and local government web resources and services.